createdAt,value
2018-05-25T00:00:01.848Z,1011.69
2018-05-25T00:01:01.869Z,1011.69
2018-05-25T00:02:01.890Z,1011.68
2018-05-25T00:03:01.913Z,1011.72
2018-05-25T00:04:01.939Z,1011.65
2018-05-25T00:05:01.958Z,1011.64
2018-05-25T00:06:01.978Z,1011.65
2018-05-25T00:07:02.003Z,1011.67
2018-05-25T00:08:02.021Z,1011.63
2018-05-25T00:09:02.044Z,1011.62
2018-05-25T00:10:02.065Z,1011.61
2018-05-25T00:11:02.087Z,1011.59
2018-05-25T00:12:02.108Z,1011.64
2018-05-25T00:13:02.130Z,1011.64
2018-05-25T00:14:02.151Z,1011.70
2018-05-25T00:15:02.174Z,1011.62
2018-05-25T00:16:02.195Z,1011.65
2018-05-25T00:17:02.218Z,1011.70
2018-05-25T00:18:02.239Z,1011.66
2018-05-25T00:19:02.265Z,1011.68
2018-05-25T00:20:02.281Z,1011.66
2018-05-25T00:21:02.306Z,1011.65
2018-05-25T00:22:02.325Z,1011.66
2018-05-25T00:23:02.346Z,1011.62
2018-05-25T00:24:02.370Z,1011.66
2018-05-25T00:25:02.392Z,1011.64
2018-05-25T00:26:02.411Z,1011.63
2018-05-25T00:27:02.433Z,1011.63
2018-05-25T00:28:02.455Z,1011.64
2018-05-25T00:29:02.477Z,1011.64
2018-05-25T00:30:02.498Z,1011.65
2018-05-25T00:31:02.519Z,1011.66
2018-05-25T00:32:02.540Z,1011.63
2018-05-25T00:33:02.563Z,1011.61
2018-05-25T00:34:02.583Z,1011.65
2018-05-25T00:35:02.606Z,1011.56
2018-05-25T00:36:02.628Z,1011.59
2018-05-25T00:37:02.651Z,1011.61
2018-05-25T00:38:02.670Z,1011.60
2018-05-25T00:39:02.693Z,1011.60
2018-05-25T00:40:02.715Z,1011.63
2018-05-25T00:41:02.736Z,1011.60
2018-05-25T00:42:02.757Z,1011.62
2018-05-25T00:43:02.778Z,1011.56
2018-05-25T00:44:02.811Z,1011.60
2018-05-25T00:45:02.830Z,1011.57
2018-05-25T00:46:02.845Z,1011.56
2018-05-25T00:47:02.865Z,1011.57
2018-05-25T00:48:02.888Z,1011.61
2018-05-25T00:49:02.909Z,1011.56
2018-05-25T00:50:02.931Z,1011.56
2018-05-25T00:51:02.953Z,1011.60
2018-05-25T00:52:02.975Z,1011.57
2018-05-25T00:53:03.000Z,1011.55
2018-05-25T00:54:03.017Z,1011.58
2018-05-25T00:55:03.039Z,1011.54
2018-05-25T00:56:03.062Z,1011.55
2018-05-25T00:57:03.083Z,1011.56
2018-05-25T00:58:03.104Z,1011.56
2018-05-25T00:59:03.126Z,1011.56
2018-05-25T01:00:03.147Z,1011.58
2018-05-25T01:01:03.176Z,1011.59
2018-05-25T01:02:03.190Z,1011.59
2018-05-25T01:03:03.211Z,1011.53
2018-05-25T01:04:03.234Z,1011.51
2018-05-25T01:05:03.256Z,1011.53
2018-05-25T01:06:03.278Z,1011.52
2018-05-25T01:07:03.300Z,1011.55
2018-05-25T01:08:03.321Z,1011.54
2018-05-25T01:09:03.343Z,1011.50
2018-05-25T01:10:03.366Z,1011.51
2018-05-25T01:11:03.387Z,1011.50
2018-05-25T01:12:03.407Z,1011.53
2018-05-25T01:13:03.429Z,1011.50
2018-05-25T01:14:03.452Z,1011.49
2018-05-25T01:15:03.475Z,1011.51
2018-05-25T01:16:03.494Z,1011.55
2018-05-25T01:17:03.519Z,1011.52
2018-05-25T01:18:03.537Z,1011.54
2018-05-25T01:19:03.559Z,1011.53
2018-05-25T01:20:03.584Z,1011.54
2018-05-25T01:21:03.602Z,1011.55
2018-05-25T01:22:03.624Z,1011.55
2018-05-25T01:23:03.646Z,1011.58
2018-05-25T01:24:03.667Z,1011.58
2018-05-25T01:25:03.689Z,1011.53
2018-05-25T01:26:03.710Z,1011.50
2018-05-25T01:27:03.731Z,1011.52
2018-05-25T01:28:03.755Z,1011.52
2018-05-25T01:29:03.775Z,1011.54
2018-05-25T01:30:03.797Z,1011.53
2018-05-25T01:31:03.817Z,1011.56
2018-05-25T01:32:03.840Z,1011.51
2018-05-25T01:33:03.863Z,1011.53
2018-05-25T01:34:03.883Z,1011.51
2018-05-25T01:35:03.905Z,1011.49
2018-05-25T01:36:03.926Z,1011.50
2018-05-25T01:37:03.949Z,1011.51
2018-05-25T01:38:03.970Z,1011.46
2018-05-25T01:39:03.992Z,1011.47
2018-05-25T01:40:04.013Z,1011.49
2018-05-25T01:41:04.037Z,1011.45
2018-05-25T01:42:04.055Z,1011.45
2018-05-25T01:43:04.078Z,1011.41
2018-05-25T01:44:04.100Z,1011.42
2018-05-25T01:45:04.121Z,1011.39
2018-05-25T01:46:04.145Z,1011.42
2018-05-25T01:47:04.164Z,1011.43
2018-05-25T01:48:04.189Z,1011.41
2018-05-25T01:49:04.210Z,1011.41
2018-05-25T01:50:04.228Z,1011.38
2018-05-25T01:51:04.250Z,1011.33
2018-05-25T01:52:04.273Z,1011.33
2018-05-25T01:53:04.293Z,1011.36
2018-05-25T01:54:04.314Z,1011.38
2018-05-25T01:55:04.337Z,1011.36
2018-05-25T01:56:04.358Z,1011.31
2018-05-25T01:57:04.383Z,1011.31
2018-05-25T01:58:04.401Z,1011.34
2018-05-25T01:59:04.423Z,1011.30
2018-05-25T02:00:04.444Z,1011.28
2018-05-25T02:01:04.466Z,1011.27
2018-05-25T02:02:04.493Z,1011.34
2018-05-25T02:03:04.510Z,1011.28
2018-05-25T02:04:04.531Z,1011.31
2018-05-25T02:05:04.554Z,1011.35
2018-05-25T02:06:04.574Z,1011.31
2018-05-25T02:07:04.598Z,1011.36
2018-05-25T02:08:04.618Z,1011.33
2018-05-25T02:09:04.639Z,1011.32
2018-05-25T02:10:04.661Z,1011.37
2018-05-25T02:11:04.705Z,1011.34
2018-05-25T02:12:04.703Z,1011.34
2018-05-25T02:13:04.726Z,1011.35
2018-05-25T02:14:04.747Z,1011.41
2018-05-25T02:15:04.769Z,1011.41
2018-05-25T02:16:04.789Z,1011.34
2018-05-25T02:17:04.812Z,1011.38
2018-05-25T02:18:04.832Z,1011.36
2018-05-25T02:19:04.854Z,1011.37
2018-05-25T02:20:04.875Z,1011.33
2018-05-25T02:21:04.898Z,1011.37
2018-05-25T02:22:04.923Z,1011.37
2018-05-25T02:23:04.941Z,1011.35
2018-05-25T02:24:04.962Z,1011.32
2018-05-25T02:25:04.984Z,1011.31
2018-05-25T02:26:05.006Z,1011.34
2018-05-25T02:27:05.027Z,1011.30
2018-05-25T02:28:05.048Z,1011.31
2018-05-25T02:29:05.069Z,1011.35
2018-05-25T02:30:05.091Z,1011.32
2018-05-25T02:31:05.112Z,1011.33
2018-05-25T02:32:05.136Z,1011.33
2018-05-25T02:33:05.156Z,1011.32
2018-05-25T02:34:05.179Z,1011.30
2018-05-25T02:35:05.198Z,1011.32
2018-05-25T02:36:05.223Z,1011.30
2018-05-25T02:37:05.244Z,1011.31
2018-05-25T02:38:05.263Z,1011.29
2018-05-25T02:39:05.285Z,1011.28
2018-05-25T02:40:05.306Z,1011.31
2018-05-25T02:41:05.328Z,1011.30
2018-05-25T02:42:05.349Z,1011.28
2018-05-25T02:43:05.371Z,1011.30
2018-05-25T02:44:05.393Z,1011.26
2018-05-25T02:45:05.415Z,1011.36
2018-05-25T02:46:05.438Z,1011.32
2018-05-25T02:47:05.457Z,1011.31
2018-05-25T02:48:05.478Z,1011.34
2018-05-25T02:49:05.500Z,1011.30
2018-05-25T02:50:05.520Z,1011.35
2018-05-25T02:51:05.542Z,1011.32
2018-05-25T02:52:05.563Z,1011.29
2018-05-25T02:53:05.586Z,1011.30
2018-05-25T02:54:05.606Z,1011.30
2018-05-25T02:55:05.639Z,1011.31
2018-05-25T02:56:05.650Z,1011.27
2018-05-25T02:57:05.672Z,1011.25
2018-05-25T02:58:05.692Z,1011.28
2018-05-25T02:59:05.713Z,1011.28
2018-05-25T03:00:05.736Z,1011.29
2018-05-25T03:01:05.758Z,1011.28
2018-05-25T03:02:05.777Z,1011.32
2018-05-25T03:03:05.799Z,1011.32
2018-05-25T03:04:05.821Z,1011.32
2018-05-25T03:05:05.844Z,1011.29
2018-05-25T03:06:05.862Z,1011.30
2018-05-25T03:07:05.883Z,1011.28
2018-05-25T03:08:05.906Z,1011.30
2018-05-25T03:09:05.927Z,1011.33
2018-05-25T03:10:05.948Z,1011.35
2018-05-25T03:11:05.969Z,1011.32
2018-05-25T03:12:05.990Z,1011.32
2018-05-25T03:13:06.013Z,1011.37
2018-05-25T03:14:06.033Z,1011.34
2018-05-25T03:15:06.055Z,1011.37
2018-05-25T03:16:06.079Z,1011.31
2018-05-25T03:17:06.108Z,1011.34
2018-05-25T03:18:06.118Z,1011.33
2018-05-25T03:19:06.143Z,1011.32
2018-05-25T03:20:06.160Z,1011.30
2018-05-25T03:21:06.181Z,1011.27
2018-05-25T03:22:06.202Z,1011.33
2018-05-25T03:23:06.223Z,1011.31
2018-05-25T03:24:06.248Z,1011.29
2018-05-25T03:25:06.266Z,1011.27
2018-05-25T03:26:06.310Z,1011.26
2018-05-25T03:27:06.309Z,1011.28
2018-05-25T03:28:06.331Z,1011.28
2018-05-25T03:29:06.353Z,1011.25
2018-05-25T03:30:06.373Z,1011.28
2018-05-25T03:31:06.396Z,1011.25
2018-05-25T03:32:06.415Z,1011.25
2018-05-25T03:33:06.438Z,1011.24
2018-05-25T03:34:06.463Z,1011.22
2018-05-25T03:35:06.479Z,1011.26
2018-05-25T03:36:06.500Z,1011.25
2018-05-25T03:37:06.523Z,1011.30
2018-05-25T03:38:06.544Z,1011.28
2018-05-25T03:39:06.567Z,1011.26
2018-05-25T03:40:06.587Z,1011.25
2018-05-25T03:41:06.607Z,1011.24
2018-05-25T03:42:06.628Z,1011.26
2018-05-25T03:43:06.651Z,1011.27
2018-05-25T03:44:06.672Z,1011.25
2018-05-25T03:45:06.692Z,1011.27
2018-05-25T03:46:06.715Z,1011.32
2018-05-25T03:47:06.736Z,1011.30
2018-05-25T03:48:06.756Z,1011.28
2018-05-25T03:49:06.778Z,1011.32
2018-05-25T03:50:06.799Z,1011.32
2018-05-25T03:51:06.820Z,1011.34
2018-05-25T03:52:06.842Z,1011.31
2018-05-25T03:53:06.864Z,1011.33
2018-05-25T03:54:06.884Z,1011.36
2018-05-25T03:55:06.905Z,1011.35
2018-05-25T03:56:06.926Z,1011.33
2018-05-25T03:57:06.949Z,1011.32
2018-05-25T03:58:06.970Z,1011.29
2018-05-25T03:59:06.990Z,1011.33
2018-05-25T04:00:07.012Z,1011.33
2018-05-25T04:01:07.081Z,1011.32
2018-05-25T04:02:07.054Z,1011.36
2018-05-25T04:03:07.076Z,1011.32
2018-05-25T04:04:07.114Z,1011.32
2018-05-25T04:05:07.119Z,1011.30
2018-05-25T04:06:07.140Z,1011.33
2018-05-25T04:07:07.162Z,1011.33
2018-05-25T04:08:07.187Z,1011.30
2018-05-25T04:09:07.206Z,1011.34
2018-05-25T04:10:07.226Z,1011.28
2018-05-25T04:11:07.247Z,1011.34
2018-05-25T04:12:07.268Z,1011.37
2018-05-25T04:13:07.289Z,1011.35
2018-05-25T04:14:07.311Z,1011.36
2018-05-25T04:15:07.332Z,1011.41
2018-05-25T04:16:07.354Z,1011.39
2018-05-25T04:17:07.379Z,1011.34
2018-05-25T04:18:07.398Z,1011.36
2018-05-25T04:19:07.419Z,1011.33
2018-05-25T04:20:07.440Z,1011.34
2018-05-25T04:21:07.461Z,1011.31
2018-05-25T04:22:07.482Z,1011.36
2018-05-25T04:23:07.505Z,1011.36
2018-05-25T04:24:07.528Z,1011.31
2018-05-25T04:25:07.547Z,1011.33
2018-05-25T04:26:07.569Z,1011.37
2018-05-25T04:27:07.590Z,1011.33
2018-05-25T04:28:07.611Z,1011.33
2018-05-25T04:29:07.633Z,1011.30
2018-05-25T04:30:07.653Z,1011.30
2018-05-25T04:31:07.675Z,1011.29
2018-05-25T04:32:07.698Z,1011.35
2018-05-25T04:33:07.719Z,1011.30
2018-05-25T04:34:07.739Z,1011.34
2018-05-25T04:35:07.761Z,1011.36
2018-05-25T04:36:07.783Z,1011.38
2018-05-25T04:37:07.804Z,1011.39
2018-05-25T04:38:07.826Z,1011.35
2018-05-25T04:39:07.847Z,1011.36
2018-05-25T04:40:07.869Z,1011.33
2018-05-25T04:41:07.891Z,1011.37
2018-05-25T04:42:07.912Z,1011.39
2018-05-25T04:43:08.000Z,1011.40
2018-05-25T04:44:07.955Z,1011.39
2018-05-25T04:45:07.980Z,1011.43
2018-05-25T04:46:07.998Z,1011.41
2018-05-25T04:47:08.020Z,1011.48
2018-05-25T04:48:08.041Z,1011.45
2018-05-25T04:49:08.063Z,1011.50
2018-05-25T04:50:08.083Z,1011.47
2018-05-25T04:51:08.106Z,1011.50
2018-05-25T04:52:08.128Z,1011.52
2018-05-25T04:53:08.148Z,1011.54
2018-05-25T04:54:08.170Z,1011.60
2018-05-25T04:55:08.191Z,1011.55
2018-05-25T04:56:08.213Z,1011.59
2018-05-25T04:57:08.235Z,1011.59
2018-05-25T04:58:08.256Z,1011.60
2018-05-25T04:59:08.278Z,1011.57
2018-05-25T05:00:08.299Z,1011.61
2018-05-25T05:01:08.324Z,1011.61
2018-05-25T05:02:08.342Z,1011.60
2018-05-25T05:03:08.363Z,1011.61
2018-05-25T05:04:08.392Z,1011.64
2018-05-25T05:05:08.406Z,1011.66
2018-05-25T05:06:08.428Z,1011.64
2018-05-25T05:07:08.452Z,1011.62
2018-05-25T05:08:08.471Z,1011.67
2018-05-25T05:09:08.493Z,1011.68
2018-05-25T05:10:08.516Z,1011.66
2018-05-25T05:11:08.537Z,1011.66
2018-05-25T05:12:08.558Z,1011.67
2018-05-25T05:13:08.580Z,1011.66
2018-05-25T05:14:08.600Z,1011.68
2018-05-25T05:15:08.623Z,1011.64
2018-05-25T05:16:08.646Z,1011.65
2018-05-25T05:17:08.666Z,1011.66
2018-05-25T05:18:08.688Z,1011.68
2018-05-25T05:19:08.710Z,1011.68
2018-05-25T05:20:08.731Z,1011.71
2018-05-25T05:21:08.754Z,1011.69
2018-05-25T05:22:08.774Z,1011.70
2018-05-25T05:23:08.875Z,1011.69
2018-05-25T05:24:08.818Z,1011.74
2018-05-25T05:25:08.839Z,1011.70
2018-05-25T05:26:08.861Z,1011.73
2018-05-25T05:27:08.882Z,1011.73
2018-05-25T05:28:08.904Z,1011.72
2018-05-25T05:29:08.927Z,1011.72
2018-05-25T05:34:09.033Z,1011.67
2018-05-25T05:35:09.054Z,1011.68
2018-05-25T05:36:09.079Z,1011.74
2018-05-25T05:37:09.098Z,1011.76
2018-05-25T05:38:09.120Z,1011.72
2018-05-25T05:39:09.141Z,1011.72
2018-05-25T05:40:09.165Z,1011.67
2018-05-25T05:41:09.185Z,1011.65
2018-05-25T05:42:09.206Z,1011.71
2018-05-25T05:43:09.228Z,1011.72
2018-05-25T05:44:09.250Z,1011.69
2018-05-25T05:45:09.272Z,1011.72
2018-05-25T05:46:09.295Z,1011.74
2018-05-25T05:47:09.315Z,1011.75
2018-05-25T05:48:09.337Z,1011.71
2018-05-25T05:49:09.359Z,1011.74
2018-05-25T05:50:09.380Z,1011.73
2018-05-25T05:51:09.403Z,1011.75
2018-05-25T05:52:09.424Z,1011.80
2018-05-25T05:53:09.447Z,1011.78
2018-05-25T05:54:09.468Z,1011.77
2018-05-25T05:55:09.490Z,1011.71
2018-05-25T05:56:09.513Z,1011.76
2018-05-25T05:57:09.533Z,1011.72
2018-05-25T05:58:09.554Z,1011.73
2018-05-25T05:59:09.578Z,1011.81
2018-05-25T06:00:09.600Z,1011.78
2018-05-25T06:01:09.621Z,1011.80
2018-05-25T06:02:09.643Z,1011.83
2018-05-25T06:03:09.666Z,1011.79
2018-05-25T06:04:09.686Z,1011.83
2018-05-25T06:05:09.713Z,1011.85
2018-05-25T06:06:09.731Z,1011.83
2018-05-25T06:07:09.752Z,1011.80
2018-05-25T06:08:09.787Z,1011.82
2018-05-25T06:09:09.798Z,1011.77
2018-05-25T06:10:09.819Z,1011.84
2018-05-25T06:11:09.839Z,1011.80
2018-05-25T06:12:09.864Z,1011.77
2018-05-25T06:13:09.884Z,1011.75
2018-05-25T06:14:09.905Z,1011.80
2018-05-25T06:15:09.931Z,1011.86
2018-05-25T06:16:09.950Z,1011.80
2018-05-25T06:17:09.973Z,1011.79
2018-05-25T06:18:09.995Z,1011.84
2018-05-25T06:19:10.016Z,1011.86
2018-05-25T06:20:10.040Z,1011.83
2018-05-25T06:21:10.061Z,1011.87
2018-05-25T06:22:10.082Z,1011.89
2018-05-25T06:23:10.105Z,1011.87
2018-05-25T06:24:10.129Z,1011.84
2018-05-25T06:25:10.156Z,1011.81
2018-05-25T06:26:10.176Z,1011.84
2018-05-25T06:27:10.202Z,1011.87
2018-05-25T06:28:10.223Z,1011.86
2018-05-25T06:29:10.239Z,1011.89
2018-05-25T06:30:10.261Z,1011.88
2018-05-25T06:31:10.284Z,1011.88
2018-05-25T06:32:10.307Z,1011.96
2018-05-25T06:33:10.328Z,1011.93
2018-05-25T06:34:10.350Z,1011.96
2018-05-25T06:35:10.373Z,1011.99
2018-05-25T06:36:10.396Z,1011.97
2018-05-25T06:37:10.418Z,1011.96
2018-05-25T06:38:10.441Z,1011.97
2018-05-25T06:39:10.465Z,1011.99
2018-05-25T06:40:10.491Z,1011.99
2018-05-25T06:41:10.513Z,1011.96
2018-05-25T06:42:10.530Z,1012.00
2018-05-25T06:43:10.552Z,1012.02
2018-05-25T06:44:10.576Z,1012.04
2018-05-25T06:45:10.599Z,1012.04
2018-05-25T06:46:10.622Z,1012.05
2018-05-25T06:47:10.644Z,1012.10
2018-05-25T06:48:10.667Z,1012.12
2018-05-25T06:49:10.689Z,1012.06
2018-05-25T06:50:10.711Z,1012.06
2018-05-25T06:51:10.735Z,1012.09
2018-05-25T06:52:10.759Z,1012.16
2018-05-25T06:53:10.782Z,1012.18
2018-05-25T06:54:10.804Z,1012.36
2018-05-25T06:55:10.826Z,1012.36
2018-05-25T06:56:10.849Z,1012.19
2018-05-25T06:57:10.900Z,1012.25
2018-05-25T06:58:10.896Z,1012.22
2018-05-25T06:59:10.920Z,1012.22
2018-05-25T07:00:10.944Z,1012.21
2018-05-25T07:01:10.967Z,1012.26
2018-05-25T07:02:10.989Z,1012.37
2018-05-25T07:03:11.013Z,1012.24
2018-05-25T07:04:11.036Z,1012.28
2018-05-25T07:05:11.061Z,1012.40
2018-05-25T07:06:11.085Z,1012.28
2018-05-25T07:07:11.109Z,1012.32
2018-05-25T07:08:11.134Z,1012.39
2018-05-25T07:09:11.159Z,1012.45
2018-05-25T07:10:11.181Z,1012.49
2018-05-25T07:11:11.207Z,1012.55
2018-05-25T07:12:11.231Z,1012.51
2018-05-25T07:13:11.257Z,1012.68
2018-05-25T07:14:11.284Z,1012.68
2018-05-25T07:15:11.304Z,1012.74
2018-05-25T07:16:11.331Z,1012.65
2018-05-25T07:17:11.361Z,1012.77
2018-05-25T07:18:11.380Z,1012.85
2018-05-25T07:19:11.407Z,1012.97
2018-05-25T07:20:11.433Z,1012.95
2018-05-25T07:21:11.457Z,1012.90
2018-05-25T07:22:11.484Z,1012.97
2018-05-25T07:23:11.510Z,1013.10
2018-05-25T07:24:11.536Z,1012.95
2018-05-25T07:25:11.565Z,1012.89
2018-05-25T07:26:11.589Z,1012.79
2018-05-25T07:27:11.613Z,1012.93
2018-05-25T07:28:11.640Z,1012.86
2018-05-25T07:29:11.668Z,1012.78
2018-05-25T07:30:11.694Z,1012.75
2018-05-25T07:31:11.719Z,1012.70
2018-05-25T07:32:11.749Z,1012.42
2018-05-25T07:33:11.775Z,1012.69
2018-05-25T07:34:11.802Z,1012.70
2018-05-25T07:35:11.828Z,1012.70
2018-05-25T07:36:11.857Z,1012.69
2018-05-25T07:37:11.890Z,1012.62
2018-05-25T07:38:11.911Z,1012.68
2018-05-25T07:39:11.939Z,1012.70
2018-05-25T07:40:11.966Z,1012.58
2018-05-25T07:41:11.996Z,1012.58
2018-05-25T07:42:12.020Z,1012.35
2018-05-25T07:43:12.049Z,1012.37
2018-05-25T07:44:12.078Z,1012.27
2018-05-25T07:45:12.106Z,1012.32
2018-05-25T07:46:12.133Z,1012.33
2018-05-25T07:47:12.167Z,1012.29
2018-05-25T07:48:12.189Z,1012.53
2018-05-25T07:49:12.217Z,1012.43
2018-05-25T07:50:12.244Z,1012.59
2018-05-25T07:51:12.274Z,1012.48
2018-05-25T07:52:12.301Z,1012.23
2018-05-25T07:53:12.329Z,1012.19
2018-05-25T07:54:12.357Z,1012.41
2018-05-25T07:55:12.383Z,1012.51
2018-05-25T07:56:12.413Z,1012.57
2018-05-25T07:57:12.440Z,1012.45
2018-05-25T07:58:12.467Z,1012.46
2018-05-25T07:59:12.495Z,1012.23
2018-05-25T08:00:12.525Z,1012.18
2018-05-25T08:01:12.558Z,1012.51
2018-05-25T08:02:12.578Z,1012.55
2018-05-25T08:03:12.610Z,1012.49
2018-05-25T08:04:12.634Z,1012.48
2018-05-25T08:05:12.664Z,1012.53
2018-05-25T08:06:12.691Z,1012.56
2018-05-25T08:07:12.718Z,1012.50
2018-05-25T08:08:12.747Z,1012.62
2018-05-25T08:09:12.775Z,1012.58
2018-05-25T08:10:12.804Z,1012.63
2018-05-25T08:11:12.831Z,1012.59
2018-05-25T08:12:12.860Z,1012.61
2018-05-25T08:13:12.890Z,1012.67
2018-05-25T08:14:12.916Z,1012.71
2018-05-25T08:15:12.947Z,1012.69
2018-05-25T08:16:12.975Z,1012.73
2018-05-25T08:17:13.007Z,1012.67
2018-05-25T08:18:13.033Z,1012.61
2018-05-25T08:19:13.061Z,1012.63
2018-05-25T08:20:13.096Z,1012.58
2018-05-25T08:21:13.119Z,1012.58
2018-05-25T08:22:13.148Z,1012.54
2018-05-25T08:23:13.178Z,1012.58
2018-05-25T08:24:13.208Z,1012.56
2018-05-25T08:25:13.242Z,1012.58
2018-05-25T08:26:13.266Z,1012.60
2018-05-25T08:27:13.297Z,1012.60
2018-05-25T08:28:13.326Z,1012.58
2018-05-25T08:29:13.357Z,1012.59
2018-05-25T08:30:13.411Z,1012.57
2018-05-25T08:31:13.416Z,1012.60
2018-05-25T08:32:13.445Z,1012.61
2018-05-25T08:33:13.476Z,1012.60
2018-05-25T08:34:13.505Z,1012.53
2018-05-25T08:35:13.535Z,1012.61
2018-05-25T08:36:13.566Z,1012.59
2018-05-25T08:37:13.596Z,1012.53
2018-05-25T08:38:13.627Z,1012.54
2018-05-25T08:39:13.658Z,1012.56
2018-05-25T08:40:13.687Z,1012.59
2018-05-25T08:41:13.718Z,1012.59
2018-05-25T08:42:13.748Z,1012.69
2018-05-25T08:43:13.829Z,1012.75
2018-05-25T08:44:13.810Z,1012.74
2018-05-25T08:45:13.842Z,1012.80
2018-05-25T08:46:13.870Z,1012.82
2018-05-25T08:47:13.901Z,1012.79
2018-05-25T08:48:13.933Z,1012.82
2018-05-25T08:49:13.965Z,1012.79
2018-05-25T08:50:13.995Z,1012.81
2018-05-25T08:51:14.026Z,1012.74
2018-05-25T08:52:14.055Z,1012.73
2018-05-25T08:53:14.087Z,1012.75
2018-05-25T08:54:14.117Z,1012.72
2018-05-25T08:55:14.188Z,1012.73
2018-05-25T08:56:14.180Z,1012.68
2018-05-25T08:57:14.217Z,1012.72
2018-05-25T08:58:14.243Z,1012.75
2018-05-25T08:59:14.273Z,1012.63
2018-05-25T09:00:14.304Z,1012.63
2018-05-25T09:01:14.349Z,1012.59
2018-05-25T09:02:14.364Z,1012.62
2018-05-25T09:03:14.396Z,1012.58
2018-05-25T09:04:14.428Z,1012.63
2018-05-25T09:05:14.466Z,1012.68
2018-05-25T09:06:14.491Z,1012.65
2018-05-25T09:07:14.521Z,1012.69
2018-05-25T09:08:14.553Z,1012.64
2018-05-25T09:09:14.588Z,1012.71
2018-05-25T09:10:14.617Z,1012.75
2018-05-25T09:11:14.648Z,1012.77
2018-05-25T09:12:14.678Z,1012.49
2018-05-25T09:13:14.710Z,1012.85
2018-05-25T09:14:14.742Z,1012.65
2018-05-25T09:15:14.775Z,1012.78
2018-05-25T09:16:14.806Z,1012.89
2018-05-25T09:17:14.837Z,1012.50
2018-05-25T09:18:14.872Z,1012.48
2018-05-25T09:19:14.900Z,1013.04
2018-05-25T09:20:14.932Z,1013.02
2018-05-25T09:21:14.963Z,1012.98
2018-05-25T09:22:14.995Z,1013.07
2018-05-25T09:23:15.028Z,1013.10
2018-05-25T09:24:15.057Z,1013.16
2018-05-25T09:25:15.090Z,1013.26
2018-05-25T09:26:15.124Z,1013.25
2018-05-25T09:27:15.153Z,1013.29
2018-05-25T09:28:15.185Z,1013.27
2018-05-25T09:29:15.215Z,1013.24
2018-05-25T09:30:15.248Z,1013.22
2018-05-25T09:31:15.278Z,1013.23
2018-05-25T09:32:15.311Z,1013.23
2018-05-25T09:33:15.342Z,1013.22
2018-05-25T09:34:15.374Z,1013.22
2018-05-25T09:35:15.407Z,1013.21
2018-05-25T09:36:15.458Z,1013.21
2018-05-25T09:37:15.470Z,1013.15
2018-05-25T09:38:15.501Z,1013.14
2018-05-25T09:39:15.534Z,1013.20
2018-05-25T09:40:15.566Z,1013.23
2018-05-25T09:41:15.601Z,1013.21
2018-05-25T09:42:15.633Z,1013.20
2018-05-25T09:43:15.662Z,1013.21
2018-05-25T09:44:15.694Z,1013.23
2018-05-25T09:45:15.728Z,1013.21
2018-05-25T09:46:15.759Z,1013.25
2018-05-25T09:47:15.790Z,1013.18
2018-05-25T09:48:15.823Z,1012.98
2018-05-25T09:49:15.857Z,1013.19
2018-05-25T09:50:15.887Z,1013.19
2018-05-25T09:51:15.923Z,1013.17
2018-05-25T09:52:15.953Z,1013.10
2018-05-25T09:53:15.987Z,1013.17
2018-05-25T09:54:16.016Z,1013.15
2018-05-25T09:55:16.049Z,1013.14
2018-05-25T09:56:16.085Z,1013.14
2018-05-25T09:57:16.114Z,1013.17
2018-05-25T09:58:16.145Z,1013.18
2018-05-25T09:59:16.178Z,1013.15
2018-05-25T10:00:16.211Z,1013.19
2018-05-25T10:01:16.243Z,1013.17
2018-05-25T10:02:16.274Z,1013.21
2018-05-25T10:03:16.337Z,1013.24
2018-05-25T10:04:16.339Z,1013.19
2018-05-25T10:05:16.372Z,1013.20
2018-05-25T10:06:16.404Z,1013.26
2018-05-25T10:07:16.437Z,1013.25
2018-05-25T10:08:16.470Z,1013.22
2018-05-25T10:09:16.505Z,1013.30
2018-05-25T10:10:16.536Z,1013.24
2018-05-25T10:11:16.567Z,1013.20
2018-05-25T10:12:16.599Z,1013.24
2018-05-25T10:13:16.633Z,1013.19
2018-05-25T10:14:16.663Z,1013.28
2018-05-25T10:15:16.695Z,1013.34
2018-05-25T10:16:16.729Z,1013.42
2018-05-25T10:17:16.761Z,1012.48
2018-05-25T10:18:16.793Z,1012.45
2018-05-25T10:19:16.826Z,1012.63
2018-05-25T10:20:16.858Z,1012.42
2018-05-25T10:21:16.890Z,1012.32
2018-05-25T10:22:16.922Z,1012.32
2018-05-25T10:23:16.955Z,1012.35
2018-05-25T10:24:16.988Z,1012.45
2018-05-25T10:25:17.020Z,1012.45
2018-05-25T10:26:17.051Z,1012.45
2018-05-25T10:27:17.084Z,1012.37
2018-05-25T10:28:17.115Z,1012.35
2018-05-25T10:29:17.146Z,1012.36
2018-05-25T10:30:17.177Z,1012.35
2018-05-25T10:31:17.209Z,1012.52
2018-05-25T10:32:17.243Z,1012.54
2018-05-25T10:33:17.271Z,1012.70
2018-05-25T10:34:17.302Z,1012.58
2018-05-25T10:35:17.344Z,1012.49
2018-05-25T10:36:17.370Z,1012.84
2018-05-25T10:37:17.394Z,1012.61
2018-05-25T10:38:17.426Z,1012.88
2018-05-25T10:39:17.457Z,1013.05
2018-05-25T10:40:17.488Z,1012.99
2018-05-25T10:41:17.575Z,1013.25
2018-05-25T10:42:17.550Z,1013.24
2018-05-25T10:43:17.578Z,1013.27
2018-05-25T10:44:17.609Z,1013.25
2018-05-25T10:45:17.639Z,1013.24
2018-05-25T10:46:17.671Z,1013.26
2018-05-25T10:47:17.700Z,1013.26
2018-05-25T10:48:17.732Z,1013.33
2018-05-25T10:49:17.763Z,1013.23
2018-05-25T10:50:17.795Z,1013.22
2018-05-25T10:51:17.826Z,1013.30
2018-05-25T10:52:17.856Z,1013.29
2018-05-25T10:53:17.888Z,1013.30
2018-05-25T10:54:17.919Z,1013.32
2018-05-25T10:55:17.952Z,1013.33
2018-05-25T10:56:17.984Z,1013.37
2018-05-25T10:57:18.015Z,1012.27
2018-05-25T10:58:18.047Z,1012.16
2018-05-25T10:59:18.078Z,1012.14
2018-05-25T11:00:18.111Z,1012.14
2018-05-25T11:01:18.142Z,1013.23
2018-05-25T11:02:18.174Z,1013.18
2018-05-25T11:03:18.205Z,1013.10
2018-05-25T11:04:18.238Z,1013.18
2018-05-25T11:05:18.270Z,1013.20
2018-05-25T11:06:18.301Z,1012.11
2018-05-25T11:07:18.332Z,1013.18
2018-05-25T11:08:18.365Z,1013.21
2018-05-25T11:09:18.397Z,1013.22
2018-05-25T11:10:18.427Z,1013.33
2018-05-25T11:11:18.458Z,1013.33
2018-05-25T11:12:18.491Z,1013.29
2018-05-25T11:13:18.523Z,1013.38
2018-05-25T11:14:18.558Z,1013.41
2018-05-25T11:15:18.586Z,1013.49
2018-05-25T11:16:18.617Z,1013.56
2018-05-25T11:17:18.650Z,1012.52
2018-05-25T11:18:18.681Z,1013.37
2018-05-25T11:19:18.712Z,1013.67
2018-05-25T11:20:18.748Z,1013.59
2018-05-25T11:21:18.777Z,1013.74
2018-05-25T11:22:18.809Z,1013.87
2018-05-25T11:23:18.839Z,1014.03
2018-05-25T11:24:18.872Z,1014.11
2018-05-25T11:25:18.905Z,1012.14
2018-05-25T11:26:18.936Z,1012.03
2018-05-25T11:27:18.969Z,1012.02
2018-05-25T11:28:19.002Z,1012.01
2018-05-25T11:29:19.033Z,1011.95
2018-05-25T11:30:19.065Z,1015.04
2018-05-25T11:31:19.097Z,1011.93
2018-05-25T11:32:19.129Z,1011.98
2018-05-25T11:33:19.160Z,1011.87
2018-05-25T11:34:19.193Z,1011.88
2018-05-25T11:35:19.225Z,1011.81
2018-05-25T11:36:19.256Z,1011.83
2018-05-25T11:37:19.322Z,1011.78
2018-05-25T11:38:19.320Z,1011.80
2018-05-25T11:39:19.349Z,1011.90
2018-05-25T11:40:19.381Z,1011.91
2018-05-25T11:41:19.412Z,1012.35
2018-05-25T11:42:19.442Z,1015.36
2018-05-25T11:43:19.473Z,1015.42
2018-05-25T11:44:19.503Z,1015.24
2018-05-25T11:45:19.533Z,1012.24
2018-05-25T11:46:19.565Z,1014.40
2018-05-25T11:47:19.593Z,1012.62
2018-05-25T11:48:19.626Z,1011.90
2018-05-25T11:49:19.655Z,1011.79
2018-05-25T11:50:19.683Z,1011.77
2018-05-25T11:51:19.714Z,1011.74
2018-05-25T11:52:19.745Z,1011.74
2018-05-25T11:53:19.773Z,1011.73
2018-05-25T11:54:19.804Z,1011.73
2018-05-25T11:55:19.833Z,1011.70
2018-05-25T11:56:19.862Z,1011.67
2018-05-25T11:57:19.902Z,1011.62
2018-05-25T11:58:19.921Z,1011.78
2018-05-25T11:59:19.950Z,1011.69
2018-05-25T12:00:19.981Z,1011.73
2018-05-25T12:01:20.010Z,1011.79
2018-05-25T12:02:20.038Z,1011.87
2018-05-25T12:03:20.066Z,1011.81
2018-05-25T12:04:20.095Z,1011.74
2018-05-25T12:05:20.124Z,1011.69
2018-05-25T12:06:20.151Z,1011.63
2018-05-25T12:07:20.180Z,1011.65
2018-05-25T12:08:20.208Z,1011.66
2018-05-25T12:09:20.238Z,1011.79